sensor_id;sensor_type;location;lat;lon;timestamp;pressure;altitude;pressure_sealevel;temperature;humidity
28000;BME280;15328;50.860;10.562;2023-03-25T00:00:20;95383.09;;;10.34;57.41
28000;BME280;15328;50.860;10.562;2023-03-25T00:05:21;95359.84;;;10.12;58.32
28000;BME280;15328;50.860;10.562;2023-03-25T00:10:22;95350.91;;;10.02;58.71
28000;BME280;15328;50.860;10.562;2023-03-25T00:15:22;95343.41;;;9.99;58.26
28000;BME280;15328;50.860;10.562;2023-03-25T00:20:22;95355.66;;;10.00;58.09
28000;BME280;15328;50.860;10.562;2023-03-25T00:25:23;95348.59;;;9.77;59.25
28000;BME280;15328;50.860;10.562;2023-03-25T00:30:23;95357.06;;;9.74;59.15
28000;BME280;15328;50.860;10.562;2023-03-25T00:35:24;95350.13;;;9.73;58.56
28000;BME280;15328;50.860;10.562;2023-03-25T00:40:26;95353.84;;;9.72;58.50
28000;BME280;15328;50.860;10.562;2023-03-25T00:45:27;95356.97;;;9.69;58.54
28000;BME280;15328;50.860;10.562;2023-03-25T00:50:28;95384.41;;;9.74;58.82
28000;BME280;15328;50.860;10.562;2023-03-25T00:55:28;95370.66;;;9.77;58.26
28000;BME280;15328;50.860;10.562;2023-03-25T01:00:29;95344.09;;;9.77;58.35
28000;BME280;15328;50.860;10.562;2023-03-25T01:05:29;95343.38;;;9.82;58.17
28000;BME280;15328;50.860;10.562;2023-03-25T01:10:30;95305.00;;;9.44;58.60
28000;BME280;15328;50.860;10.562;2023-03-25T01:15:30;95309.09;;;9.80;57.37
28000;BME280;15328;50.860;10.562;2023-03-25T01:20:30;95293.72;;;9.82;57.70
28000;BME280;15328;50.860;10.562;2023-03-25T01:25:31;95283.50;;;9.74;57.92
28000;BME280;15328;50.860;10.562;2023-03-25T01:30:31;95298.94;;;9.77;57.63
28000;BME280;15328;50.860;10.562;2023-03-25T01:35:32;95300.19;;;9.58;57.96
28000;BME280;15328;50.860;10.562;2023-03-25T01:40:32;95310.72;;;9.36;57.72
28000;BME280;15328;50.860;10.562;2023-03-25T01:45:33;95318.09;;;9.63;56.63
28000;BME280;15328;50.860;10.562;2023-03-25T01:50:37;95314.25;;;9.42;57.09
28000;BME280;15328;50.860;10.562;2023-03-25T01:55:39;95315.53;;;9.39;56.83
28000;BME280;15328;50.860;10.562;2023-03-25T02:00:41;95318.69;;;9.53;56.27
28000;BME280;15328;50.860;10.562;2023-03-25T02:05:54;95318.38;;;9.49;56.37
28000;BME280;15328;50.860;10.562;2023-03-25T02:10:56;95321.81;;;9.50;56.76
28000;BME280;15328;50.860;10.562;2023-03-25T02:21:46;95335.91;;;9.50;56.30
28000;BME280;15328;50.860;10.562;2023-03-25T02:27:11;95308.66;;;9.55;55.75
28000;BME280;15328;50.860;10.562;2023-03-25T02:43:01;95276.53;;;9.40;55.88
28000;BME280;15328;50.860;10.562;2023-03-25T02:48:11;95294.16;;;9.46;55.22
28000;BME280;15328;50.860;10.562;2023-03-25T02:53:18;95296.81;;;9.46;55.25
28000;BME280;15328;50.860;10.562;2023-03-25T02:58:23;95302.50;;;9.38;55.34
28000;BME280;15328;50.860;10.562;2023-03-25T03:03:25;95312.88;;;9.39;54.42
28000;BME280;15328;50.860;10.562;2023-03-25T03:24:30;95287.00;;;9.18;54.66
28000;BME280;15328;50.860;10.562;2023-03-25T03:29:38;95279.84;;;9.18;54.63
28000;BME280;15328;50.860;10.562;2023-03-25T03:34:48;95287.06;;;9.06;54.83
28000;BME280;15328;50.860;10.562;2023-03-25T03:39:52;95295.56;;;9.08;54.80
28000;BME280;15328;50.860;10.562;2023-03-25T03:45:22;95301.34;;;9.05;54.86
28000;BME280;15328;50.860;10.562;2023-03-25T03:50:26;95302.66;;;8.91;55.27
28000;BME280;15328;50.860;10.562;2023-03-25T03:55:40;95316.47;;;8.93;54.84
28000;BME280;15328;50.860;10.562;2023-03-25T04:01:06;95313.28;;;8.79;55.48
28000;BME280;15328;50.860;10.562;2023-03-25T04:06:19;95315.72;;;8.81;55.40
28000;BME280;15328;50.860;10.562;2023-03-25T04:11:22;95309.59;;;8.80;55.64
28000;BME280;15328;50.860;10.562;2023-03-25T04:16:24;95313.84;;;8.81;56.06
28000;BME280;15328;50.860;10.562;2023-03-25T04:21:25;95306.25;;;8.73;56.15
28000;BME280;15328;50.860;10.562;2023-03-25T04:26:28;95323.75;;;8.74;56.01
28000;BME280;15328;50.860;10.562;2023-03-25T04:31:32;95331.63;;;8.69;56.70
28000;BME280;15328;50.860;10.562;2023-03-25T04:36:33;95342.00;;;8.47;58.16
28000;BME280;15328;50.860;10.562;2023-03-25T04:41:37;95332.09;;;8.54;58.61
28000;BME280;15328;50.860;10.562;2023-03-25T04:46:38;95351.91;;;8.40;60.13
28000;BME280;15328;50.860;10.562;2023-03-25T04:51:39;95367.22;;;8.38;59.77
28000;BME280;15328;50.860;10.562;2023-03-25T04:56:43;95392.66;;;8.27;61.03
28000;BME280;15328;50.860;10.562;2023-03-25T05:01:46;95367.78;;;8.28;60.84
28000;BME280;15328;50.860;10.562;2023-03-25T05:06:48;95353.13;;;8.14;61.42
28000;BME280;15328;50.860;10.562;2023-03-25T05:11:51;95367.75;;;8.17;61.75
28000;BME280;15328;50.860;10.562;2023-03-25T05:16:51;95366.25;;;8.09;62.81
28000;BME280;15328;50.860;10.562;2023-03-25T05:21:52;95368.50;;;7.94;63.97
28000;BME280;15328;50.860;10.562;2023-03-25T05:26:52;95360.22;;;7.90;63.88
28000;BME280;15328;50.860;10.562;2023-03-25T05:31:54;95356.59;;;7.73;64.69
28000;BME280;15328;50.860;10.562;2023-03-25T05:36:54;95368.16;;;7.90;64.13
28000;BME280;15328;50.860;10.562;2023-03-25T05:41:54;95392.16;;;8.07;63.90
28000;BME280;15328;50.860;10.562;2023-03-25T05:46:55;95392.97;;;8.07;63.73
28000;BME280;15328;50.860;10.562;2023-03-25T05:51:55;95371.19;;;8.05;63.79
28000;BME280;15328;50.860;10.562;2023-03-25T05:56:56;95359.91;;;7.98;64.26
28000;BME280;15328;50.860;10.562;2023-03-25T06:01:56;95389.16;;;8.03;64.56
28000;BME280;15328;50.860;10.562;2023-03-25T06:06:56;95380.06;;;7.99;65.74
28000;BME280;15328;50.860;10.562;2023-03-25T06:11:57;95366.56;;;8.01;65.60
28000;BME280;15328;50.860;10.562;2023-03-25T06:16:57;95386.28;;;8.05;65.83
28000;BME280;15328;50.860;10.562;2023-03-25T06:21:57;95386.63;;;8.20;65.20
28000;BME280;15328;50.860;10.562;2023-03-25T06:26:58;95390.56;;;8.18;65.66
28000;BME280;15328;50.860;10.562;2023-03-25T06:31:58;95387.25;;;8.22;65.81
28000;BME280;15328;50.860;10.562;2023-03-25T06:36:59;95384.72;;;8.27;64.58
28000;BME280;15328;50.860;10.562;2023-03-25T06:42:00;95403.84;;;8.29;64.66
28000;BME280;15328;50.860;10.562;2023-03-25T06:47:00;95404.09;;;8.40;64.51
28000;BME280;15328;50.860;10.562;2023-03-25T06:52:03;95419.19;;;8.39;64.16
28000;BME280;15328;50.860;10.562;2023-03-25T06:57:04;95406.66;;;8.04;64.24
28000;BME280;15328;50.860;10.562;2023-03-25T07:02:05;95412.13;;;8.33;63.54
28000;BME280;15328;50.860;10.562;2023-03-25T07:07:07;95398.00;;;8.39;62.75
28000;BME280;15328;50.860;10.562;2023-03-25T07:12:07;95412.81;;;8.28;63.25
28000;BME280;15328;50.860;10.562;2023-03-25T07:17:07;95420.94;;;8.45;62.63
28000;BME280;15328;50.860;10.562;2023-03-25T07:22:08;95405.75;;;8.52;63.44
28000;BME280;15328;50.860;10.562;2023-03-25T07:27:12;95425.91;;;8.53;63.01
28000;BME280;15328;50.860;10.562;2023-03-25T07:32:13;95415.53;;;8.63;62.76
28000;BME280;15328;50.860;10.562;2023-03-25T07:37:13;95424.75;;;8.73;61.80
28000;BME280;15328;50.860;10.562;2023-03-25T07:42:14;95429.59;;;8.64;60.43
28000;BME280;15328;50.860;10.562;2023-03-25T07:47:15;95440.19;;;8.76;60.78
28000;BME280;15328;50.860;10.562;2023-03-25T07:52:15;95428.69;;;8.82;60.57
28000;BME280;15328;50.860;10.562;2023-03-25T07:57:15;95434.31;;;8.97;62.46
28000;BME280;15328;50.860;10.562;2023-03-25T08:02:15;95439.75;;;9.14;59.76
28000;BME280;15328;50.860;10.562;2023-03-25T08:07:16;95448.13;;;9.46;59.88
28000;BME280;15328;50.860;10.562;2023-03-25T08:12:16;95451.38;;;9.76;60.08
28000;BME280;15328;50.860;10.562;2023-03-25T08:17:16;95454.84;;;10.05;59.51
28000;BME280;15328;50.860;10.562;2023-03-25T08:22:17;95450.25;;;10.29;57.69
28000;BME280;15328;50.860;10.562;2023-03-25T08:27:18;95450.44;;;10.39;57.46
28000;BME280;15328;50.860;10.562;2023-03-25T08:32:18;95462.31;;;10.48;58.03
28000;BME280;15328;50.860;10.562;2023-03-25T08:37:19;95453.75;;;10.46;57.20
28000;BME280;15328;50.860;10.562;2023-03-25T08:42:20;95471.56;;;10.46;56.00
28000;BME280;15328;50.860;10.562;2023-03-25T08:47:20;95456.72;;;10.33;56.32
28000;BME280;15328;50.860;10.562;2023-03-25T08:52:21;95473.84;;;9.97;56.56
28000;BME280;15328;50.860;10.562;2023-03-25T08:58:25;95468.19;;;9.94;56.74
28000;BME280;15328;50.860;10.562;2023-03-25T09:02:59;95467.28;;;9.88;57.46
28000;BME280;15328;50.860;10.562;2023-03-25T09:08:22;95472.56;;;10.00;57.10
28000;BME280;15328;50.860;10.562;2023-03-25T09:13:25;95457.03;;;10.08;56.69
28000;BME280;15328;50.860;10.562;2023-03-25T09:18:31;95459.31;;;10.45;57.20
28000;BME280;15328;50.860;10.562;2023-03-25T09:23:46;95461.03;;;11.01;55.65
28000;BME280;15328;50.860;10.562;2023-03-25T09:28:49;95468.03;;;10.91;55.11
28000;BME280;15328;50.860;10.562;2023-03-25T09:33:50;95468.13;;;10.79;54.77
28000;BME280;15328;50.860;10.562;2023-03-25T09:38:50;95455.03;;;10.61;55.22
28000;BME280;15328;50.860;10.562;2023-03-25T09:48:51;95444.06;;;10.91;55.52
28000;BME280;15328;50.860;10.562;2023-03-25T09:59:30;95438.56;;;11.14;55.75
28000;BME280;15328;50.860;10.562;2023-03-25T10:05:27;95446.16;;;11.66;54.48
28000;BME280;15328;50.860;10.562;2023-03-25T10:21:21;95422.50;;;12.13;49.20
28000;BME280;15328;50.860;10.562;2023-03-25T10:26:40;95433.56;;;12.05;49.50
28000;BME280;15328;50.860;10.562;2023-03-25T10:31:50;95424.69;;;12.21;49.48
28000;BME280;15328;50.860;10.562;2023-03-25T10:36:53;95388.88;;;12.76;48.38
28000;BME280;15328;50.860;10.562;2023-03-25T10:42:10;95388.72;;;13.35;47.36
28000;BME280;15328;50.860;10.562;2023-03-25T10:47:17;95369.09;;;13.72;44.52
28000;BME280;15328;50.860;10.562;2023-03-25T10:52:19;95376.94;;;13.99;44.29
28000;BME280;15328;50.860;10.562;2023-03-25T10:57:24;95360.47;;;13.49;44.84
28000;BME280;15328;50.860;10.562;2023-03-25T11:02:27;95361.03;;;13.09;46.05
28000;BME280;15328;50.860;10.562;2023-03-25T11:07:33;95353.47;;;12.49;48.17
28000;BME280;15328;50.860;10.562;2023-03-25T11:12:33;95363.03;;;12.13;49.49
28000;BME280;15328;50.860;10.562;2023-03-25T11:17:34;95420.88;;;11.46;50.93
28000;BME280;15328;50.860;10.562;2023-03-25T11:22:36;95501.47;;;10.87;54.58
28000;BME280;15328;50.860;10.562;2023-03-25T11:27:50;95520.56;;;10.21;52.91
28000;BME280;15328;50.860;10.562;2023-03-25T11:33:13;95515.31;;;9.35;53.69
28000;BME280;15328;50.860;10.562;2023-03-25T11:38:22;95517.59;;;8.96;54.05
28000;BME280;15328;50.860;10.562;2023-03-25T11:43:34;95516.69;;;8.49;55.46
28000;BME280;15328;50.860;10.562;2023-03-25T11:48:38;95485.09;;;8.05;56.21
28000;BME280;15328;50.860;10.562;2023-03-25T11:53:48;95471.84;;;7.75;57.46
28000;BME280;15328;50.860;10.562;2023-03-25T11:58:56;95459.84;;;8.03;57.19
28000;BME280;15328;50.860;10.562;2023-03-25T12:04:14;95452.25;;;8.06;58.03
28000;BME280;15328;50.860;10.562;2023-03-25T12:09:15;95434.03;;;8.28;58.77
28000;BME280;15328;50.860;10.562;2023-03-25T12:14:21;95425.63;;;8.31;59.41
28000;BME280;15328;50.860;10.562;2023-03-25T12:35:21;95447.84;;;10.28;57.92
28000;BME280;15328;50.860;10.562;2023-03-25T12:40:32;95426.31;;;11.13;55.77
28000;BME280;15328;50.860;10.562;2023-03-25T12:51:02;95435.75;;;11.64;50.16
28000;BME280;15328;50.860;10.562;2023-03-25T13:11:43;95414.38;;;11.15;53.08
28000;BME280;15328;50.860;10.562;2023-03-25T13:16:47;95409.03;;;11.54;52.09
28000;BME280;15328;50.860;10.562;2023-03-25T13:21:51;95391.69;;;12.00;52.83
28000;BME280;15328;50.860;10.562;2023-03-25T13:26:55;95395.16;;;12.01;51.42
28000;BME280;15328;50.860;10.562;2023-03-25T13:32:00;95387.38;;;12.21;52.19
28000;BME280;15328;50.860;10.562;2023-03-25T13:37:07;95390.00;;;12.16;52.17
28000;BME280;15328;50.860;10.562;2023-03-25T13:42:35;95374.00;;;12.16;53.25
28000;BME280;15328;50.860;10.562;2023-03-25T13:47:40;95373.47;;;12.19;52.98
28000;BME280;15328;50.860;10.562;2023-03-25T13:52:48;95370.63;;;12.31;52.07
28000;BME280;15328;50.860;10.562;2023-03-25T14:14:15;95362.75;;;11.82;52.17
28000;BME280;15328;50.860;10.562;2023-03-25T14:19:21;95356.31;;;11.78;51.57
28000;BME280;15328;50.860;10.562;2023-03-25T14:24:28;95355.47;;;12.04;52.58
28000;BME280;15328;50.860;10.562;2023-03-25T14:29:43;95355.44;;;11.99;51.31
28000;BME280;15328;50.860;10.562;2023-03-25T14:34:46;95355.53;;;12.10;50.25
28000;BME280;15328;50.860;10.562;2023-03-25T14:39:48;95357.91;;;12.06;50.50
28000;BME280;15328;50.860;10.562;2023-03-25T14:44:50;95359.16;;;11.98;49.90
28000;BME280;15328;50.860;10.562;2023-03-25T14:55:16;95360.47;;;11.74;49.08
28000;BME280;15328;50.860;10.562;2023-03-25T15:00:41;95352.72;;;11.72;50.24
28000;BME280;15328;50.860;10.562;2023-03-25T15:05:52;95355.91;;;11.69;50.39
28000;BME280;15328;50.860;10.562;2023-03-25T15:11:07;95361.28;;;11.74;49.28
28000;BME280;15328;50.860;10.562;2023-03-25T15:16:18;95351.63;;;11.68;48.92
28000;BME280;15328;50.860;10.562;2023-03-25T15:21:30;95363.09;;;11.47;48.52
28000;BME280;15328;50.860;10.562;2023-03-25T15:26:37;95354.31;;;11.46;48.24
28000;BME280;15328;50.860;10.562;2023-03-25T15:53:33;95403.53;;;10.83;51.69
28000;BME280;15328;50.860;10.562;2023-03-25T15:59:04;95397.66;;;10.81;51.85
28000;BME280;15328;50.860;10.562;2023-03-25T16:09:39;95379.22;;;10.58;52.47
28000;BME280;15328;50.860;10.562;2023-03-25T16:14:45;95390.44;;;10.43;52.95
28000;BME280;15328;50.860;10.562;2023-03-25T16:19:50;95382.31;;;10.05;54.00
28000;BME280;15328;50.860;10.562;2023-03-25T16:24:54;95377.63;;;10.12;53.96
28000;BME280;15328;50.860;10.562;2023-03-25T16:29:56;95354.94;;;9.87;53.69
28000;BME280;15328;50.860;10.562;2023-03-25T16:34:57;95351.47;;;10.04;53.37
28000;BME280;15328;50.860;10.562;2023-03-25T16:39:58;95330.34;;;9.80;53.10
28000;BME280;15328;50.860;10.562;2023-03-25T16:44:59;95349.13;;;10.07;52.44
28000;BME280;15328;50.860;10.562;2023-03-25T16:50:01;95343.50;;;10.04;52.85
28000;BME280;15328;50.860;10.562;2023-03-25T17:00:15;95343.81;;;10.07;52.05
28000;BME280;15328;50.860;10.562;2023-03-25T17:05:23;95356.13;;;10.13;51.84
28000;BME280;15328;50.860;10.562;2023-03-25T17:10:28;95369.91;;;10.10;52.02
28000;BME280;15328;50.860;10.562;2023-03-25T17:15:30;95418.53;;;10.23;51.45
28000;BME280;15328;50.860;10.562;2023-03-25T17:20:37;95500.59;;;10.07;53.75
28000;BME280;15328;50.860;10.562;2023-03-25T17:25:57;95454.59;;;9.78;55.98
28000;BME280;15328;50.860;10.562;2023-03-25T17:30:58;95471.44;;;9.44;56.83
28000;BME280;15328;50.860;10.562;2023-03-25T17:36:00;95442.03;;;9.34;57.62
28000;BME280;15328;50.860;10.562;2023-03-25T17:41:04;95450.22;;;9.20;57.75
28000;BME280;15328;50.860;10.562;2023-03-25T17:46:06;95444.81;;;9.04;58.69
28000;BME280;15328;50.860;10.562;2023-03-25T17:51:10;95426.72;;;8.89;59.70
28000;BME280;15328;50.860;10.562;2023-03-25T17:56:12;95427.97;;;8.75;59.99
28000;BME280;15328;50.860;10.562;2023-03-25T18:01:15;95435.34;;;8.73;60.42
28000;BME280;15328;50.860;10.562;2023-03-25T18:06:16;95451.19;;;8.79;60.15
28000;BME280;15328;50.860;10.562;2023-03-25T18:11:16;95452.06;;;8.73;60.00
28000;BME280;15328;50.860;10.562;2023-03-25T18:16:19;95462.09;;;8.59;60.49
28000;BME280;15328;50.860;10.562;2023-03-25T18:21:19;95465.44;;;8.55;60.60
28000;BME280;15328;50.860;10.562;2023-03-25T18:26:21;95460.38;;;8.53;61.08
28000;BME280;15328;50.860;10.562;2023-03-25T18:31:21;95461.53;;;8.57;60.71
28000;BME280;15328;50.860;10.562;2023-03-25T18:36:22;95470.28;;;8.70;60.51
28000;BME280;15328;50.860;10.562;2023-03-25T18:41:22;95475.13;;;8.73;60.27
28000;BME280;15328;50.860;10.562;2023-03-25T18:46:23;95467.19;;;8.73;60.99
28000;BME280;15328;50.860;10.562;2023-03-25T18:51:23;95495.31;;;8.74;61.22
28000;BME280;15328;50.860;10.562;2023-03-25T18:56:24;95506.88;;;8.79;61.34
28000;BME280;15328;50.860;10.562;2023-03-25T19:01:24;95510.19;;;8.75;61.83
28000;BME280;15328;50.860;10.562;2023-03-25T19:06:25;95499.44;;;8.70;62.02
28000;BME280;15328;50.860;10.562;2023-03-25T19:11:27;95513.63;;;8.75;60.23
28000;BME280;15328;50.860;10.562;2023-03-25T19:16:29;95503.47;;;8.60;60.85
28000;BME280;15328;50.860;10.562;2023-03-25T19:21:30;95542.09;;;8.56;61.52
28000;BME280;15328;50.860;10.562;2023-03-25T19:26:30;95534.59;;;8.53;61.83
28000;BME280;15328;50.860;10.562;2023-03-25T19:31:30;95530.09;;;8.54;62.28
28000;BME280;15328;50.860;10.562;2023-03-25T19:36:31;95520.19;;;8.49;62.71
28000;BME280;15328;50.860;10.562;2023-03-25T19:41:34;95518.06;;;8.40;63.68
28000;BME280;15328;50.860;10.562;2023-03-25T19:46:41;95540.97;;;8.34;64.62
28000;BME280;15328;50.860;10.562;2023-03-25T19:51:41;95526.31;;;8.31;64.53
28000;BME280;15328;50.860;10.562;2023-03-25T19:56:44;95530.94;;;8.36;65.16
28000;BME280;15328;50.860;10.562;2023-03-25T20:01:44;95517.53;;;8.31;64.91
28000;BME280;15328;50.860;10.562;2023-03-25T20:06:44;95512.94;;;8.26;65.18
28000;BME280;15328;50.860;10.562;2023-03-25T20:11:45;95535.38;;;8.24;65.06
28000;BME280;15328;50.860;10.562;2023-03-25T20:16:46;95518.91;;;8.22;65.22
28000;BME280;15328;50.860;10.562;2023-03-25T20:21:47;95508.31;;;8.22;65.12
28000;BME280;15328;50.860;10.562;2023-03-25T20:26:47;95507.09;;;8.36;64.43
28000;BME280;15328;50.860;10.562;2023-03-25T20:31:47;95505.16;;;8.13;64.93
28000;BME280;15328;50.860;10.562;2023-03-25T20:36:48;95522.44;;;8.16;65.39
28000;BME280;15328;50.860;10.562;2023-03-25T20:41:50;95516.97;;;8.29;64.72
28000;BME280;15328;50.860;10.562;2023-03-25T20:46:50;95512.41;;;8.36;64.42
28000;BME280;15328;50.860;10.562;2023-03-25T20:51:51;95499.75;;;8.20;64.75
28000;BME280;15328;50.860;10.562;2023-03-25T20:56:53;95498.34;;;8.17;65.40
28000;BME280;15328;50.860;10.562;2023-03-25T21:01:53;95488.00;;;8.16;64.75
28000;BME280;15328;50.860;10.562;2023-03-25T21:06:54;95488.31;;;8.07;65.03
28000;BME280;15328;50.860;10.562;2023-03-25T21:11:54;95483.03;;;8.07;64.72
28000;BME280;15328;50.860;10.562;2023-03-25T21:16:55;95483.63;;;7.91;64.79
28000;BME280;15328;50.860;10.562;2023-03-25T21:21:56;95475.50;;;7.74;65.36
28000;BME280;15328;50.860;10.562;2023-03-25T21:26:57;95492.13;;;7.82;65.28
28000;BME280;15328;50.860;10.562;2023-03-25T21:31:57;95486.00;;;7.81;65.17
28000;BME280;15328;50.860;10.562;2023-03-25T21:36:57;95480.94;;;7.80;64.72
28000;BME280;15328;50.860;10.562;2023-03-25T21:41:59;95486.94;;;7.87;64.60
28000;BME280;15328;50.860;10.562;2023-03-25T21:47:00;95493.38;;;7.79;64.54
28000;BME280;15328;50.860;10.562;2023-03-25T21:52:05;95489.69;;;7.80;64.26
28000;BME280;15328;50.860;10.562;2023-03-25T21:57:11;95503.75;;;7.81;64.17
28000;BME280;15328;50.860;10.562;2023-03-25T22:02:12;95502.13;;;7.80;63.77
28000;BME280;15328;50.860;10.562;2023-03-25T22:07:13;95512.00;;;7.72;64.64
28000;BME280;15328;50.860;10.562;2023-03-25T22:12:14;95521.19;;;7.70;64.77
28000;BME280;15328;50.860;10.562;2023-03-25T22:17:15;95511.91;;;7.79;64.29
28000;BME280;15328;50.860;10.562;2023-03-25T22:22:16;95503.53;;;7.64;64.56
28000;BME280;15328;50.860;10.562;2023-03-25T22:27:19;95519.19;;;7.65;64.76
28000;BME280;15328;50.860;10.562;2023-03-25T22:32:20;95522.59;;;7.72;64.23
28000;BME280;15328;50.860;10.562;2023-03-25T22:37:20;95533.03;;;7.67;64.42
28000;BME280;15328;50.860;10.562;2023-03-25T22:42:21;95522.84;;;7.64;64.76
28000;BME280;15328;50.860;10.562;2023-03-25T22:47:21;95523.66;;;7.65;64.75
28000;BME280;15328;50.860;10.562;2023-03-25T22:52:22;95526.25;;;7.71;64.65
28000;BME280;15328;50.860;10.562;2023-03-25T22:57:22;95542.38;;;7.70;64.36
28000;BME280;15328;50.860;10.562;2023-03-25T23:02:22;95560.16;;;7.81;64.36
28000;BME280;15328;50.860;10.562;2023-03-25T23:07:23;95562.25;;;7.91;64.45
28000;BME280;15328;50.860;10.562;2023-03-25T23:12:24;95557.50;;;7.81;64.88
28000;BME280;15328;50.860;10.562;2023-03-25T23:17:25;95565.59;;;7.86;64.57
28000;BME280;15328;50.860;10.562;2023-03-25T23:22:26;95545.66;;;7.84;64.80
28000;BME280;15328;50.860;10.562;2023-03-25T23:27:27;95538.38;;;7.79;65.38
28000;BME280;15328;50.860;10.562;2023-03-25T23:32:28;95540.22;;;7.79;65.24
28000;BME280;15328;50.860;10.562;2023-03-25T23:37:30;95552.47;;;7.91;64.53
28000;BME280;15328;50.860;10.562;2023-03-25T23:42:32;95559.84;;;7.89;64.71
28000;BME280;15328;50.860;10.562;2023-03-25T23:47:33;95552.69;;;7.90;64.84
28000;BME280;15328;50.860;10.562;2023-03-25T23:52:33;95558.53;;;7.80;64.92
28000;BME280;15328;50.860;10.562;2023-03-25T23:57:33;95555.97;;;7.73;65.68
